sensor_id;sensor_type;location;lat;lon;timestamp;P1;durP1;ratioP1;P2;durP2;ratioP2
71600;SDS011;59446;52.192;4.628;2023-02-15T00:01:14;7.80;;;4.30;;
71600;SDS011;59446;52.192;4.628;2023-02-15T00:03:39;7.60;;;4.60;;
71600;SDS011;59446;52.192;4.628;2023-02-15T00:06:05;8.67;;;3.80;;
71600;SDS011;59446;52.192;4.628;2023-02-15T00:08:30;8.35;;;4.13;;
71600;SDS011;59446;52.192;4.628;2023-02-15T00:11:03;8.00;;;4.13;;
71600;SDS011;59446;52.192;4.628;2023-02-15T00:13:30;7.28;;;4.10;;
71600;SDS011;59446;52.192;4.628;2023-02-15T00:16:00;7.13;;;3.87;;
71600;SDS011;59446;52.192;4.628;2023-02-15T00:18:26;8.13;;;3.90;;
71600;SDS011;59446;52.192;4.628;2023-02-15T00:20:51;7.27;;;3.90;;
71600;SDS011;59446;52.192;4.628;2023-02-15T00:23:16;6.40;;;3.33;;
71600;SDS011;59446;52.192;4.628;2023-02-15T00:25:42;7.13;;;3.85;;
71600;SDS011;59446;52.192;4.628;2023-02-15T00:28:07;7.47;;;3.57;;
71600;SDS011;59446;52.192;4.628;2023-02-15T00:30:32;6.93;;;3.57;;
71600;SDS011;59446;52.192;4.628;2023-02-15T00:32:58;7.93;;;4.00;;
71600;SDS011;59446;52.192;4.628;2023-02-15T00:35:23;6.43;;;3.90;;
71600;SDS011;59446;52.192;4.628;2023-02-15T00:37:49;8.17;;;3.80;;
71600;SDS011;59446;52.192;4.628;2023-02-15T00:40:14;7.13;;;4.00;;
71600;SDS011;59446;52.192;4.628;2023-02-15T00:42:39;7.00;;;3.40;;
71600;SDS011;59446;52.192;4.628;2023-02-15T00:45:05;6.95;;;3.72;;
71600;SDS011;59446;52.192;4.628;2023-02-15T00:47:30;8.77;;;3.40;;
71600;SDS011;59446;52.192;4.628;2023-02-15T00:49:56;7.10;;;3.40;;
71600;SDS011;59446;52.192;4.628;2023-02-15T00:52:21;7.13;;;3.10;;
71600;SDS011;59446;52.192;4.628;2023-02-15T00:54:46;8.03;;;3.77;;
71600;SDS011;59446;52.192;4.628;2023-02-15T00:57:12;6.10;;;3.20;;
71600;SDS011;59446;52.192;4.628;2023-02-15T00:59:37;8.40;;;3.45;;
71600;SDS011;59446;52.192;4.628;2023-02-15T01:02:02;6.97;;;3.10;;
71600;SDS011;59446;52.192;4.628;2023-02-15T01:04:28;5.70;;;3.17;;
71600;SDS011;59446;52.192;4.628;2023-02-15T01:06:53;5.50;;;2.90;;
71600;SDS011;59446;52.192;4.628;2023-02-15T01:09:18;5.57;;;2.87;;
71600;SDS011;59446;52.192;4.628;2023-02-15T01:11:44;7.07;;;2.80;;
71600;SDS011;59446;52.192;4.628;2023-02-15T01:14:09;5.40;;;2.37;;
71600;SDS011;59446;52.192;4.628;2023-02-15T01:16:35;6.63;;;3.30;;
71600;SDS011;59446;52.192;4.628;2023-02-15T01:19:00;4.97;;;2.70;;
71600;SDS011;59446;52.192;4.628;2023-02-15T01:21:27;4.63;;;2.80;;
71600;SDS011;59446;52.192;4.628;2023-02-15T01:23:53;7.83;;;3.50;;
71600;SDS011;59446;52.192;4.628;2023-02-15T01:26:18;5.60;;;3.10;;
71600;SDS011;59446;52.192;4.628;2023-02-15T01:28:44;5.47;;;2.93;;
71600;SDS011;59446;52.192;4.628;2023-02-15T01:31:11;6.40;;;2.85;;
71600;SDS011;59446;52.192;4.628;2023-02-15T01:33:39;5.43;;;2.70;;
71600;SDS011;59446;52.192;4.628;2023-02-15T01:36:04;7.67;;;2.60;;
71600;SDS011;59446;52.192;4.628;2023-02-15T01:38:30;5.80;;;2.70;;
71600;SDS011;59446;52.192;4.628;2023-02-15T01:40:56;7.20;;;2.97;;
71600;SDS011;59446;52.192;4.628;2023-02-15T01:43:48;6.10;;;2.95;;
71600;SDS011;59446;52.192;4.628;2023-02-15T01:46:18;6.82;;;2.85;;
71600;SDS011;59446;52.192;4.628;2023-02-15T01:48:47;4.87;;;2.60;;
71600;SDS011;59446;52.192;4.628;2023-02-15T01:51:17;4.78;;;2.58;;
71600;SDS011;59446;52.192;4.628;2023-02-15T01:56:58;4.35;;;2.13;;
71600;SDS011;59446;52.192;4.628;2023-02-15T01:59:28;6.03;;;2.97;;
71600;SDS011;59446;52.192;4.628;2023-02-15T02:01:55;5.05;;;2.70;;
71600;SDS011;59446;52.192;4.628;2023-02-15T02:04:29;5.28;;;2.90;;
71600;SDS011;59446;52.192;4.628;2023-02-15T02:07:00;5.40;;;2.60;;
71600;SDS011;59446;52.192;4.628;2023-02-15T02:09:26;5.10;;;2.40;;
71600;SDS011;59446;52.192;4.628;2023-02-15T02:11:51;6.30;;;2.80;;
71600;SDS011;59446;52.192;4.628;2023-02-15T02:14:19;4.90;;;2.35;;
71600;SDS011;59446;52.192;4.628;2023-02-15T02:16:53;5.40;;;2.70;;
71600;SDS011;59446;52.192;4.628;2023-02-15T02:19:50;6.83;;;2.73;;
71600;SDS011;59446;52.192;4.628;2023-02-15T02:22:29;5.07;;;2.53;;
71600;SDS011;59446;52.192;4.628;2023-02-15T02:37:18;5.00;;;2.38;;
71600;SDS011;59446;52.192;4.628;2023-02-15T02:42:43;4.80;;;2.30;;
71600;SDS011;59446;52.192;4.628;2023-02-15T02:45:20;5.35;;;2.60;;
71600;SDS011;59446;52.192;4.628;2023-02-15T02:47:58;5.37;;;2.83;;
71600;SDS011;59446;52.192;4.628;2023-02-15T02:50:28;6.03;;;2.22;;
71600;SDS011;59446;52.192;4.628;2023-02-15T02:52:55;4.30;;;2.13;;
71600;SDS011;59446;52.192;4.628;2023-02-15T02:55:27;4.93;;;2.20;;
71600;SDS011;59446;52.192;4.628;2023-02-15T03:00:27;4.55;;;2.33;;
71600;SDS011;59446;52.192;4.628;2023-02-15T03:03:02;6.32;;;2.50;;
71600;SDS011;59446;52.192;4.628;2023-02-15T03:05:32;5.73;;;2.50;;
71600;SDS011;59446;52.192;4.628;2023-02-15T03:08:00;5.50;;;2.65;;
71600;SDS011;59446;52.192;4.628;2023-02-15T03:10:31;5.72;;;2.35;;
71600;SDS011;59446;52.192;4.628;2023-02-15T03:12:59;4.10;;;2.17;;
71600;SDS011;59446;52.192;4.628;2023-02-15T03:15:26;5.72;;;2.70;;
71600;SDS011;59446;52.192;4.628;2023-02-15T03:18:16;4.13;;;2.07;;
71600;SDS011;59446;52.192;4.628;2023-02-15T03:20:45;4.93;;;2.40;;
71600;SDS011;59446;52.192;4.628;2023-02-15T03:23:14;6.97;;;2.40;;
71600;SDS011;59446;52.192;4.628;2023-02-15T03:25:43;4.53;;;2.20;;
71600;SDS011;59446;52.192;4.628;2023-02-15T03:28:15;4.70;;;2.30;;
71600;SDS011;59446;52.192;4.628;2023-02-15T03:30:47;5.63;;;2.17;;
71600;SDS011;59446;52.192;4.628;2023-02-15T03:33:17;5.10;;;2.20;;
71600;SDS011;59446;52.192;4.628;2023-02-15T03:35:49;4.10;;;2.10;;
71600;SDS011;59446;52.192;4.628;2023-02-15T03:38:29;5.50;;;2.45;;
71600;SDS011;59446;52.192;4.628;2023-02-15T03:41:01;4.30;;;1.73;;
71600;SDS011;59446;52.192;4.628;2023-02-15T03:43:41;4.37;;;2.13;;
71600;SDS011;59446;52.192;4.628;2023-02-15T03:46:23;4.18;;;2.00;;
71600;SDS011;59446;52.192;4.628;2023-02-15T03:48:54;4.93;;;2.10;;
71600;SDS011;59446;52.192;4.628;2023-02-15T03:51:29;4.07;;;2.10;;
71600;SDS011;59446;52.192;4.628;2023-02-15T03:54:09;4.35;;;2.13;;
71600;SDS011;59446;52.192;4.628;2023-02-15T03:56:38;5.25;;;2.15;;
71600;SDS011;59446;52.192;4.628;2023-02-15T03:59:06;4.50;;;2.03;;
71600;SDS011;59446;52.192;4.628;2023-02-15T04:01:54;3.07;;;1.63;;
71600;SDS011;59446;52.192;4.628;2023-02-15T04:04:37;5.22;;;2.10;;
71600;SDS011;59446;52.192;4.628;2023-02-15T04:07:05;4.70;;;2.25;;
71600;SDS011;59446;52.192;4.628;2023-02-15T04:09:32;4.60;;;1.80;;
71600;SDS011;59446;52.192;4.628;2023-02-15T04:12:16;4.40;;;2.10;;
71600;SDS011;59446;52.192;4.628;2023-02-15T04:14:42;4.97;;;1.65;;
71600;SDS011;59446;52.192;4.628;2023-02-15T04:17:26;3.20;;;1.80;;
71600;SDS011;59446;52.192;4.628;2023-02-15T04:19:51;4.80;;;2.05;;
71600;SDS011;59446;52.192;4.628;2023-02-15T04:22:35;3.80;;;1.80;;
71600;SDS011;59446;52.192;4.628;2023-02-15T04:25:19;3.05;;;1.88;;
71600;SDS011;59446;52.192;4.628;2023-02-15T04:27:46;3.40;;;1.90;;
71600;SDS011;59446;52.192;4.628;2023-02-15T04:30:14;4.45;;;2.03;;
71600;SDS011;59446;52.192;4.628;2023-02-15T04:32:40;3.30;;;1.98;;
71600;SDS011;59446;52.192;4.628;2023-02-15T04:35:06;4.20;;;1.80;;
71600;SDS011;59446;52.192;4.628;2023-02-15T04:37:32;4.60;;;2.20;;
71600;SDS011;59446;52.192;4.628;2023-02-15T04:39:58;4.20;;;1.70;;
71600;SDS011;59446;52.192;4.628;2023-02-15T04:42:24;3.85;;;1.90;;
71600;SDS011;59446;52.192;4.628;2023-02-15T04:44:50;3.73;;;1.80;;
71600;SDS011;59446;52.192;4.628;2023-02-15T04:47:16;3.85;;;2.00;;
71600;SDS011;59446;52.192;4.628;2023-02-15T04:49:41;3.17;;;1.70;;
71600;SDS011;59446;52.192;4.628;2023-02-15T04:52:06;5.00;;;1.90;;
71600;SDS011;59446;52.192;4.628;2023-02-15T04:54:32;4.40;;;2.13;;
71600;SDS011;59446;52.192;4.628;2023-02-15T04:56:57;3.73;;;1.80;;
71600;SDS011;59446;52.192;4.628;2023-02-15T04:59:22;4.43;;;1.92;;
71600;SDS011;59446;52.192;4.628;2023-02-15T05:01:48;3.33;;;1.53;;
71600;SDS011;59446;52.192;4.628;2023-02-15T05:04:13;4.90;;;2.00;;
71600;SDS011;59446;52.192;4.628;2023-02-15T05:06:38;4.37;;;1.90;;
71600;SDS011;59446;52.192;4.628;2023-02-15T05:09:04;3.77;;;1.67;;
71600;SDS011;59446;52.192;4.628;2023-02-15T05:11:29;4.33;;;1.73;;
71600;SDS011;59446;52.192;4.628;2023-02-15T05:13:55;4.93;;;2.23;;
71600;SDS011;59446;52.192;4.628;2023-02-15T05:16:20;3.90;;;1.77;;
71600;SDS011;59446;52.192;4.628;2023-02-15T05:18:45;4.77;;;2.07;;
71600;SDS011;59446;52.192;4.628;2023-02-15T05:21:11;4.40;;;1.63;;
71600;SDS011;59446;52.192;4.628;2023-02-15T05:23:38;3.30;;;1.77;;
71600;SDS011;59446;52.192;4.628;2023-02-15T05:26:03;3.40;;;1.80;;
71600;SDS011;59446;52.192;4.628;2023-02-15T05:28:47;4.90;;;2.00;;
71600;SDS011;59446;52.192;4.628;2023-02-15T05:31:14;3.43;;;2.20;;
71600;SDS011;59446;52.192;4.628;2023-02-15T05:33:41;3.22;;;1.70;;
71600;SDS011;59446;52.192;4.628;2023-02-15T05:36:07;3.87;;;1.70;;
71600;SDS011;59446;52.192;4.628;2023-02-15T05:38:33;3.22;;;1.60;;
71600;SDS011;59446;52.192;4.628;2023-02-15T05:41:02;3.83;;;1.70;;
71600;SDS011;59446;52.192;4.628;2023-02-15T05:43:27;2.67;;;1.60;;
71600;SDS011;59446;52.192;4.628;2023-02-15T05:45:54;4.40;;;1.73;;
71600;SDS011;59446;52.192;4.628;2023-02-15T05:48:20;3.97;;;1.95;;
71600;SDS011;59446;52.192;4.628;2023-02-15T05:50:56;4.78;;;1.90;;
71600;SDS011;59446;52.192;4.628;2023-02-15T05:53:29;3.50;;;1.92;;
71600;SDS011;59446;52.192;4.628;2023-02-15T05:55:56;3.23;;;1.63;;
71600;SDS011;59446;52.192;4.628;2023-02-15T05:58:26;4.13;;;1.75;;
71600;SDS011;59446;52.192;4.628;2023-02-15T06:01:07;3.83;;;1.70;;
71600;SDS011;59446;52.192;4.628;2023-02-15T06:03:36;3.30;;;1.80;;
71600;SDS011;59446;52.192;4.628;2023-02-15T06:06:02;4.43;;;2.13;;
71600;SDS011;59446;52.192;4.628;2023-02-15T06:08:29;3.90;;;1.80;;
71600;SDS011;59446;52.192;4.628;2023-02-15T06:10:55;4.05;;;1.65;;
71600;SDS011;59446;52.192;4.628;2023-02-15T06:13:21;3.60;;;1.43;;
71600;SDS011;59446;52.192;4.628;2023-02-15T06:15:46;2.93;;;1.40;;
71600;SDS011;59446;52.192;4.628;2023-02-15T06:18:11;2.80;;;1.40;;
71600;SDS011;59446;52.192;4.628;2023-02-15T06:20:37;3.93;;;1.77;;
71600;SDS011;59446;52.192;4.628;2023-02-15T06:23:02;3.60;;;1.70;;
71600;SDS011;59446;52.192;4.628;2023-02-15T06:25:28;4.23;;;1.93;;
71600;SDS011;59446;52.192;4.628;2023-02-15T06:27:53;2.65;;;1.17;;
71600;SDS011;59446;52.192;4.628;2023-02-15T06:30:19;3.47;;;1.63;;
71600;SDS011;59446;52.192;4.628;2023-02-15T06:32:45;4.05;;;1.80;;
71600;SDS011;59446;52.192;4.628;2023-02-15T06:35:10;3.23;;;1.60;;
71600;SDS011;59446;52.192;4.628;2023-02-15T06:37:36;4.25;;;1.88;;
71600;SDS011;59446;52.192;4.628;2023-02-15T06:40:02;3.00;;;1.57;;
71600;SDS011;59446;52.192;4.628;2023-02-15T06:42:29;3.80;;;1.70;;
71600;SDS011;59446;52.192;4.628;2023-02-15T06:44:54;3.30;;;1.70;;
71600;SDS011;59446;52.192;4.628;2023-02-15T06:47:20;2.95;;;1.75;;
71600;SDS011;59446;52.192;4.628;2023-02-15T06:49:45;3.60;;;1.70;;
71600;SDS011;59446;52.192;4.628;2023-02-15T06:52:10;2.97;;;1.30;;
71600;SDS011;59446;52.192;4.628;2023-02-15T06:54:36;3.40;;;1.70;;
71600;SDS011;59446;52.192;4.628;2023-02-15T06:57:01;3.33;;;1.60;;
71600;SDS011;59446;52.192;4.628;2023-02-15T06:59:27;4.37;;;1.63;;
71600;SDS011;59446;52.192;4.628;2023-02-15T07:01:52;4.45;;;1.85;;
71600;SDS011;59446;52.192;4.628;2023-02-15T07:04:17;3.40;;;1.43;;
71600;SDS011;59446;52.192;4.628;2023-02-15T07:06:43;4.47;;;1.97;;
71600;SDS011;59446;52.192;4.628;2023-02-15T07:09:08;3.37;;;1.47;;
71600;SDS011;59446;52.192;4.628;2023-02-15T07:11:33;3.87;;;1.53;;
71600;SDS011;59446;52.192;4.628;2023-02-15T07:14:17;2.72;;;1.38;;
71600;SDS011;59446;52.192;4.628;2023-02-15T07:16:43;3.60;;;1.50;;
71600;SDS011;59446;52.192;4.628;2023-02-15T07:19:08;2.53;;;1.50;;
71600;SDS011;59446;52.192;4.628;2023-02-15T07:21:34;2.97;;;1.33;;
71600;SDS011;59446;52.192;4.628;2023-02-15T07:24:00;3.50;;;1.27;;
71600;SDS011;59446;52.192;4.628;2023-02-15T07:26:26;2.85;;;1.42;;
71600;SDS011;59446;52.192;4.628;2023-02-15T07:28:52;4.57;;;1.80;;
71600;SDS011;59446;52.192;4.628;2023-02-15T07:31:18;3.47;;;1.63;;
71600;SDS011;59446;52.192;4.628;2023-02-15T07:33:43;3.00;;;1.53;;
71600;SDS011;59446;52.192;4.628;2023-02-15T07:36:09;3.73;;;1.57;;
71600;SDS011;59446;52.192;4.628;2023-02-15T07:38:37;2.83;;;1.42;;
71600;SDS011;59446;52.192;4.628;2023-02-15T07:41:05;3.47;;;1.73;;
71600;SDS011;59446;52.192;4.628;2023-02-15T07:43:33;4.22;;;1.70;;
71600;SDS011;59446;52.192;4.628;2023-02-15T07:46:01;4.60;;;2.00;;
71600;SDS011;59446;52.192;4.628;2023-02-15T07:48:27;4.75;;;2.05;;
71600;SDS011;59446;52.192;4.628;2023-02-15T07:50:53;4.57;;;2.40;;
71600;SDS011;59446;52.192;4.628;2023-02-15T07:53:18;5.32;;;2.55;;
71600;SDS011;59446;52.192;4.628;2023-02-15T07:55:44;4.40;;;2.17;;
71600;SDS011;59446;52.192;4.628;2023-02-15T07:58:09;5.77;;;2.63;;
71600;SDS011;59446;52.192;4.628;2023-02-15T08:00:34;6.63;;;2.90;;
71600;SDS011;59446;52.192;4.628;2023-02-15T08:03:22;5.85;;;2.20;;
71600;SDS011;59446;52.192;4.628;2023-02-15T08:05:51;5.50;;;2.70;;
71600;SDS011;59446;52.192;4.628;2023-02-15T08:08:21;6.72;;;2.78;;
71600;SDS011;59446;52.192;4.628;2023-02-15T08:11:02;5.45;;;2.45;;
71600;SDS011;59446;52.192;4.628;2023-02-15T08:13:50;5.18;;;2.15;;
71600;SDS011;59446;52.192;4.628;2023-02-15T08:18:56;6.70;;;2.15;;
71600;SDS011;59446;52.192;4.628;2023-02-15T08:21:24;6.13;;;2.80;;
71600;SDS011;59446;52.192;4.628;2023-02-15T08:23:51;4.40;;;1.80;;
71600;SDS011;59446;52.192;4.628;2023-02-15T08:26:17;7.35;;;2.15;;
71600;SDS011;59446;52.192;4.628;2023-02-15T08:28:43;5.50;;;2.43;;
71600;SDS011;59446;52.192;4.628;2023-02-15T08:31:10;4.68;;;2.20;;
71600;SDS011;59446;52.192;4.628;2023-02-15T08:33:37;5.65;;;2.33;;
71600;SDS011;59446;52.192;4.628;2023-02-15T08:36:04;5.27;;;2.00;;
71600;SDS011;59446;52.192;4.628;2023-02-15T08:38:31;3.60;;;1.80;;
71600;SDS011;59446;52.192;4.628;2023-02-15T08:40:57;3.58;;;1.85;;
71600;SDS011;59446;52.192;4.628;2023-02-15T08:43:23;3.83;;;1.50;;
71600;SDS011;59446;52.192;4.628;2023-02-15T08:45:48;5.10;;;2.00;;
71600;SDS011;59446;52.192;4.628;2023-02-15T08:48:14;3.83;;;1.80;;
71600;SDS011;59446;52.192;4.628;2023-02-15T08:50:39;3.13;;;1.70;;
71600;SDS011;59446;52.192;4.628;2023-02-15T08:53:04;5.00;;;1.77;;
71600;SDS011;59446;52.192;4.628;2023-02-15T08:55:30;3.83;;;1.70;;
71600;SDS011;59446;52.192;4.628;2023-02-15T08:57:55;4.90;;;2.10;;
71600;SDS011;59446;52.192;4.628;2023-02-15T09:00:21;3.90;;;1.63;;
71600;SDS011;59446;52.192;4.628;2023-02-15T09:02:50;5.50;;;1.65;;
71600;SDS011;59446;52.192;4.628;2023-02-15T09:05:15;3.20;;;1.67;;
71600;SDS011;59446;52.192;4.628;2023-02-15T09:07:41;4.60;;;2.08;;
71600;SDS011;59446;52.192;4.628;2023-02-15T09:10:06;5.53;;;2.10;;
71600;SDS011;59446;52.192;4.628;2023-02-15T09:12:32;3.50;;;2.07;;
71600;SDS011;59446;52.192;4.628;2023-02-15T09:14:57;5.07;;;2.08;;
71600;SDS011;59446;52.192;4.628;2023-02-15T09:17:23;3.83;;;2.03;;
71600;SDS011;59446;52.192;4.628;2023-02-15T09:19:49;3.87;;;1.70;;
71600;SDS011;59446;52.192;4.628;2023-02-15T09:22:14;4.07;;;1.73;;
71600;SDS011;59446;52.192;4.628;2023-02-15T09:24:39;5.30;;;1.50;;
71600;SDS011;59446;52.192;4.628;2023-02-15T09:27:05;3.97;;;2.07;;
71600;SDS011;59446;52.192;4.628;2023-02-15T09:29:30;2.97;;;1.57;;
71600;SDS011;59446;52.192;4.628;2023-02-15T09:31:55;4.53;;;1.80;;
71600;SDS011;59446;52.192;4.628;2023-02-15T09:34:21;4.30;;;1.70;;
71600;SDS011;59446;52.192;4.628;2023-02-15T09:36:48;3.08;;;1.65;;
71600;SDS011;59446;52.192;4.628;2023-02-15T09:39:15;3.78;;;1.92;;
71600;SDS011;59446;52.192;4.628;2023-02-15T09:49:48;4.22;;;1.98;;
71600;SDS011;59446;52.192;4.628;2023-02-15T09:52:30;3.23;;;1.50;;
71600;SDS011;59446;52.192;4.628;2023-02-15T10:00:38;5.07;;;2.10;;
71600;SDS011;59446;52.192;4.628;2023-02-15T10:11:58;4.40;;;2.40;;
71600;SDS011;59446;52.192;4.628;2023-02-15T10:14:54;5.80;;;2.50;;
71600;SDS011;59446;52.192;4.628;2023-02-15T10:17:38;7.18;;;2.33;;
71600;SDS011;59446;52.192;4.628;2023-02-15T10:26:21;5.35;;;2.50;;
71600;SDS011;59446;52.192;4.628;2023-02-15T10:28:57;5.17;;;2.40;;
71600;SDS011;59446;52.192;4.628;2023-02-15T10:31:38;5.45;;;2.55;;
71600;SDS011;59446;52.192;4.628;2023-02-15T10:34:41;4.55;;;2.22;;
71600;SDS011;59446;52.192;4.628;2023-02-15T10:40:08;5.90;;;2.53;;
71600;SDS011;59446;52.192;4.628;2023-02-15T10:51:08;6.22;;;2.35;;
71600;SDS011;59446;52.192;4.628;2023-02-15T10:54:02;5.57;;;2.55;;
71600;SDS011;59446;52.192;4.628;2023-02-15T10:56:58;5.23;;;2.10;;
71600;SDS011;59446;52.192;4.628;2023-02-15T10:59:37;5.60;;;2.42;;
71600;SDS011;59446;52.192;4.628;2023-02-15T11:07:49;6.00;;;2.27;;
71600;SDS011;59446;52.192;4.628;2023-02-15T11:10:32;6.10;;;2.63;;
71600;SDS011;59446;52.192;4.628;2023-02-15T11:13:04;6.38;;;2.50;;
71600;SDS011;59446;52.192;4.628;2023-02-15T11:15:35;7.63;;;2.67;;
71600;SDS011;59446;52.192;4.628;2023-02-15T11:18:11;9.60;;;3.63;;
71600;SDS011;59446;52.192;4.628;2023-02-15T11:20:54;7.15;;;3.15;;
71600;SDS011;59446;52.192;4.628;2023-02-15T11:23:35;6.68;;;3.30;;
71600;SDS011;59446;52.192;4.628;2023-02-15T11:26:09;6.40;;;2.47;;
71600;SDS011;59446;52.192;4.628;2023-02-15T11:28:48;7.60;;;3.07;;
71600;SDS011;59446;52.192;4.628;2023-02-15T11:31:19;5.97;;;2.92;;
71600;SDS011;59446;52.192;4.628;2023-02-15T11:33:49;6.82;;;3.25;;
71600;SDS011;59446;52.192;4.628;2023-02-15T11:36:20;7.47;;;3.23;;
71600;SDS011;59446;52.192;4.628;2023-02-15T11:38:51;6.90;;;2.85;;
71600;SDS011;59446;52.192;4.628;2023-02-15T11:41:31;6.30;;;3.10;;
71600;SDS011;59446;52.192;4.628;2023-02-15T11:44:16;7.33;;;3.00;;
71600;SDS011;59446;52.192;4.628;2023-02-15T11:46:46;7.00;;;2.90;;
71600;SDS011;59446;52.192;4.628;2023-02-15T11:49:22;6.95;;;2.78;;
71600;SDS011;59446;52.192;4.628;2023-02-15T11:51:48;7.43;;;3.10;;
71600;SDS011;59446;52.192;4.628;2023-02-15T11:54:16;6.85;;;3.28;;
71600;SDS011;59446;52.192;4.628;2023-02-15T11:56:45;6.63;;;2.85;;
71600;SDS011;59446;52.192;4.628;2023-02-15T11:59:12;5.93;;;2.53;;
71600;SDS011;59446;52.192;4.628;2023-02-15T12:01:45;5.95;;;2.75;;
71600;SDS011;59446;52.192;4.628;2023-02-15T12:06:51;8.25;;;2.63;;
71600;SDS011;59446;52.192;4.628;2023-02-15T12:12:27;5.53;;;2.40;;
71600;SDS011;59446;52.192;4.628;2023-02-15T12:14:54;7.18;;;3.17;;
71600;SDS011;59446;52.192;4.628;2023-02-15T12:17:23;6.25;;;2.80;;
71600;SDS011;59446;52.192;4.628;2023-02-15T12:19:57;11.03;;;3.20;;
71600;SDS011;59446;52.192;4.628;2023-02-15T12:22:33;9.98;;;3.17;;
71600;SDS011;59446;52.192;4.628;2023-02-15T12:25:02;6.65;;;3.17;;
71600;SDS011;59446;52.192;4.628;2023-02-15T12:27:44;6.57;;;2.90;;
71600;SDS011;59446;52.192;4.628;2023-02-15T12:35:38;6.43;;;3.13;;
71600;SDS011;59446;52.192;4.628;2023-02-15T12:40:41;7.22;;;3.20;;
71600;SDS011;59446;52.192;4.628;2023-02-15T12:43:26;7.00;;;3.50;;
71600;SDS011;59446;52.192;4.628;2023-02-15T12:46:24;8.13;;;3.33;;
71600;SDS011;59446;52.192;4.628;2023-02-15T12:49:36;7.95;;;3.58;;
71600;SDS011;59446;52.192;4.628;2023-02-15T12:51:50;5.73;;;2.70;;
71600;SDS011;59446;52.192;4.628;2023-02-15T12:54:30;5.57;;;2.78;;
71600;SDS011;59446;52.192;4.628;2023-02-15T12:56:59;6.43;;;3.13;;
71600;SDS011;59446;52.192;4.628;2023-02-15T13:00:11;7.18;;;3.13;;
71600;SDS011;59446;52.192;4.628;2023-02-15T13:02:52;5.53;;;2.97;;
71600;SDS011;59446;52.192;4.628;2023-02-15T13:05:31;6.78;;;2.90;;
71600;SDS011;59446;52.192;4.628;2023-02-15T13:08:21;7.78;;;2.72;;
71600;SDS011;59446;52.192;4.628;2023-02-15T13:13:26;6.25;;;3.25;;
71600;SDS011;59446;52.192;4.628;2023-02-15T13:15:55;6.90;;;3.28;;
71600;SDS011;59446;52.192;4.628;2023-02-15T13:18:42;6.53;;;2.80;;
71600;SDS011;59446;52.192;4.628;2023-02-15T13:21:16;7.68;;;3.00;;
71600;SDS011;59446;52.192;4.628;2023-02-15T13:23:49;8.98;;;3.35;;
71600;SDS011;59446;52.192;4.628;2023-02-15T13:26:19;7.50;;;3.15;;
71600;SDS011;59446;52.192;4.628;2023-02-15T13:28:48;7.87;;;3.50;;
71600;SDS011;59446;52.192;4.628;2023-02-15T13:31:18;9.07;;;3.45;;
71600;SDS011;59446;52.192;4.628;2023-02-15T13:33:55;7.85;;;3.50;;
71600;SDS011;59446;52.192;4.628;2023-02-15T13:36:34;7.03;;;3.90;;
71600;SDS011;59446;52.192;4.628;2023-02-15T13:42:20;6.65;;;3.13;;
71600;SDS011;59446;52.192;4.628;2023-02-15T13:45:01;6.30;;;3.27;;
71600;SDS011;59446;52.192;4.628;2023-02-15T13:50:47;6.55;;;3.72;;
71600;SDS011;59446;52.192;4.628;2023-02-15T14:04:31;7.17;;;3.30;;
71600;SDS011;59446;52.192;4.628;2023-02-15T14:12:34;4.57;;;2.53;;
71600;SDS011;59446;52.192;4.628;2023-02-15T14:26:30;7.07;;;3.33;;
71600;SDS011;59446;52.192;4.628;2023-02-15T14:32:12;6.87;;;3.20;;
71600;SDS011;59446;52.192;4.628;2023-02-15T14:37:35;9.35;;;3.35;;
71600;SDS011;59446;52.192;4.628;2023-02-15T14:40:27;7.00;;;3.20;;
71600;SDS011;59446;52.192;4.628;2023-02-15T14:43:23;6.47;;;3.05;;
71600;SDS011;59446;52.192;4.628;2023-02-15T14:48:53;6.43;;;2.97;;
71600;SDS011;59446;52.192;4.628;2023-02-15T14:59:38;9.07;;;2.80;;
71600;SDS011;59446;52.192;4.628;2023-02-15T15:02:13;7.47;;;3.23;;
71600;SDS011;59446;52.192;4.628;2023-02-15T15:04:48;7.82;;;2.88;;
71600;SDS011;59446;52.192;4.628;2023-02-15T15:07:20;6.82;;;3.05;;
71600;SDS011;59446;52.192;4.628;2023-02-15T15:15:56;7.40;;;3.38;;
71600;SDS011;59446;52.192;4.628;2023-02-15T15:18:50;6.35;;;3.35;;
71600;SDS011;59446;52.192;4.628;2023-02-15T15:32:45;8.18;;;3.78;;
71600;SDS011;59446;52.192;4.628;2023-02-15T15:48:36;12.77;;;4.40;;
71600;SDS011;59446;52.192;4.628;2023-02-15T15:51:05;9.50;;;4.55;;
71600;SDS011;59446;52.192;4.628;2023-02-15T15:53:38;9.27;;;3.97;;
71600;SDS011;59446;52.192;4.628;2023-02-15T15:56:08;8.37;;;4.13;;
71600;SDS011;59446;52.192;4.628;2023-02-15T15:58:41;10.65;;;4.53;;
71600;SDS011;59446;52.192;4.628;2023-02-15T16:01:37;10.45;;;4.38;;
71600;SDS011;59446;52.192;4.628;2023-02-15T16:04:10;11.40;;;4.57;;
71600;SDS011;59446;52.192;4.628;2023-02-15T16:06:38;11.57;;;4.38;;
71600;SDS011;59446;52.192;4.628;2023-02-15T16:09:18;10.93;;;5.15;;
71600;SDS011;59446;52.192;4.628;2023-02-15T16:11:48;10.40;;;5.22;;
71600;SDS011;59446;52.192;4.628;2023-02-15T16:14:29;12.33;;;5.10;;
71600;SDS011;59446;52.192;4.628;2023-02-15T16:16:57;13.15;;;5.40;;
71600;SDS011;59446;52.192;4.628;2023-02-15T16:19:29;11.48;;;5.55;;
71600;SDS011;59446;52.192;4.628;2023-02-15T16:21:58;11.83;;;5.50;;
71600;SDS011;59446;52.192;4.628;2023-02-15T16:29:27;11.20;;;5.40;;
71600;SDS011;59446;52.192;4.628;2023-02-15T16:32:04;11.35;;;5.45;;
71600;SDS011;59446;52.192;4.628;2023-02-15T16:34:31;10.25;;;5.57;;
71600;SDS011;59446;52.192;4.628;2023-02-15T16:37:14;11.07;;;5.65;;
71600;SDS011;59446;52.192;4.628;2023-02-15T16:39:44;10.27;;;5.37;;
71600;SDS011;59446;52.192;4.628;2023-02-15T16:42:12;10.10;;;5.32;;
71600;SDS011;59446;52.192;4.628;2023-02-15T16:44:39;11.32;;;5.00;;
71600;SDS011;59446;52.192;4.628;2023-02-15T16:47:07;12.93;;;6.23;;
71600;SDS011;59446;52.192;4.628;2023-02-15T16:49:43;11.57;;;6.13;;
71600;SDS011;59446;52.192;4.628;2023-02-15T16:52:13;11.70;;;5.68;;
71600;SDS011;59446;52.192;4.628;2023-02-15T16:54:44;10.73;;;4.93;;
71600;SDS011;59446;52.192;4.628;2023-02-15T16:57:17;10.80;;;5.47;;
71600;SDS011;59446;52.192;4.628;2023-02-15T16:59:46;10.07;;;5.60;;
71600;SDS011;59446;52.192;4.628;2023-02-15T17:02:23;9.43;;;5.30;;
71600;SDS011;59446;52.192;4.628;2023-02-15T17:10:39;10.53;;;4.40;;
71600;SDS011;59446;52.192;4.628;2023-02-15T17:13:13;12.68;;;5.75;;
71600;SDS011;59446;52.192;4.628;2023-02-15T17:18:23;11.57;;;5.10;;
71600;SDS011;59446;52.192;4.628;2023-02-15T17:20:50;10.38;;;4.82;;
71600;SDS011;59446;52.192;4.628;2023-02-15T17:23:21;13.65;;;6.28;;
71600;SDS011;59446;52.192;4.628;2023-02-15T17:25:47;11.10;;;5.43;;
71600;SDS011;59446;52.192;4.628;2023-02-15T17:28:17;9.30;;;5.33;;
71600;SDS011;59446;52.192;4.628;2023-02-15T17:30:44;16.60;;;5.53;;
71600;SDS011;59446;52.192;4.628;2023-02-15T17:33:21;11.30;;;5.25;;
71600;SDS011;59446;52.192;4.628;2023-02-15T17:36:04;14.10;;;5.30;;
71600;SDS011;59446;52.192;4.628;2023-02-15T17:41:47;10.48;;;5.75;;
71600;SDS011;59446;52.192;4.628;2023-02-15T17:44:13;11.30;;;5.47;;
71600;SDS011;59446;52.192;4.628;2023-02-15T17:46:40;10.57;;;4.90;;
71600;SDS011;59446;52.192;4.628;2023-02-15T17:49:10;11.47;;;5.50;;
71600;SDS011;59446;52.192;4.628;2023-02-15T17:51:47;13.35;;;5.72;;
71600;SDS011;59446;52.192;4.628;2023-02-15T17:54:13;13.20;;;5.90;;
71600;SDS011;59446;52.192;4.628;2023-02-15T17:56:56;10.63;;;5.57;;
71600;SDS011;59446;52.192;4.628;2023-02-15T17:59:27;10.07;;;5.60;;
71600;SDS011;59446;52.192;4.628;2023-02-15T18:01:52;10.93;;;5.50;;
71600;SDS011;59446;52.192;4.628;2023-02-15T18:04:36;12.40;;;5.85;;
71600;SDS011;59446;52.192;4.628;2023-02-15T18:07:20;13.80;;;6.00;;
71600;SDS011;59446;52.192;4.628;2023-02-15T18:10:12;12.60;;;5.43;;
71600;SDS011;59446;52.192;4.628;2023-02-15T18:13:00;9.40;;;5.10;;